sensor_id;sensor_type;location;lat;lon;timestamp;pressure;altitude;pressure_sealevel;temperature;humidity
51528;BME280;37612;51.768;21.590;2022-12-29T00:02:35;99907.55;;;3.10;89.73
51528;BME280;37612;51.768;21.590;2022-12-29T00:06:37;99906.69;;;3.10;89.77
51528;BME280;37612;51.768;21.590;2022-12-29T00:10:41;99906.16;;;3.09;90.02
51528;BME280;37612;51.768;21.590;2022-12-29T00:14:48;99911.23;;;3.09;89.89
51528;BME280;37612;51.768;21.590;2022-12-29T00:19:09;99912.28;;;3.12;90.04
51528;BME280;37612;51.768;21.590;2022-12-29T00:23:46;99908.35;;;3.11;89.94
51528;BME280;37612;51.768;21.590;2022-12-29T00:28:10;99903.93;;;3.08;90.05
51528;BME280;37612;51.768;21.590;2022-12-29T00:32:44;99900.52;;;3.06;90.09
51528;BME280;37612;51.768;21.590;2022-12-29T00:37:32;99892.73;;;3.09;89.90
51528;BME280;37612;51.768;21.590;2022-12-29T00:42:20;99885.88;;;3.09;89.76
51528;BME280;37612;51.768;21.590;2022-12-29T00:46:55;99885.91;;;3.08;89.86
51528;BME280;37612;51.768;21.590;2022-12-29T00:50:57;99885.02;;;3.06;89.66
51528;BME280;37612;51.768;21.590;2022-12-29T00:55:05;99889.94;;;3.08;89.53
51528;BME280;37612;51.768;21.590;2022-12-29T00:59:09;99889.16;;;3.09;89.79
51528;BME280;37612;51.768;21.590;2022-12-29T01:03:12;99895.95;;;3.08;89.85
51528;BME280;37612;51.768;21.590;2022-12-29T01:07:15;99894.55;;;3.10;89.45
51528;BME280;37612;51.768;21.590;2022-12-29T01:11:19;99893.38;;;3.14;89.57
51528;BME280;37612;51.768;21.590;2022-12-29T01:15:20;99893.98;;;3.12;89.40
51528;BME280;37612;51.768;21.590;2022-12-29T01:19:22;99887.75;;;3.05;89.71
51528;BME280;37612;51.768;21.590;2022-12-29T01:23:24;99881.09;;;2.98;89.70
51528;BME280;37612;51.768;21.590;2022-12-29T01:27:25;99879.59;;;2.95;89.65
51528;BME280;37612;51.768;21.590;2022-12-29T01:31:28;99876.67;;;2.91;89.38
51528;BME280;37612;51.768;21.590;2022-12-29T01:35:32;99875.85;;;2.86;89.47
51528;BME280;37612;51.768;21.590;2022-12-29T01:39:39;99867.61;;;2.79;89.63
51528;BME280;37612;51.768;21.590;2022-12-29T01:43:54;99861.46;;;2.79;89.41
51528;BME280;37612;51.768;21.590;2022-12-29T01:48:18;99852.25;;;2.80;89.26
51528;BME280;37612;51.768;21.590;2022-12-29T01:52:44;99848.16;;;2.80;88.98
51528;BME280;37612;51.768;21.590;2022-12-29T01:56:51;99850.06;;;2.84;88.82
51528;BME280;37612;51.768;21.590;2022-12-29T02:00:56;99837.69;;;2.87;88.87
51528;BME280;37612;51.768;21.590;2022-12-29T02:04:59;99828.65;;;2.86;88.64
51528;BME280;37612;51.768;21.590;2022-12-29T02:09:04;99824.48;;;2.87;88.17
51528;BME280;37612;51.768;21.590;2022-12-29T02:13:06;99826.05;;;2.90;88.15
51528;BME280;37612;51.768;21.590;2022-12-29T02:18:13;99821.51;;;2.87;88.11
51528;BME280;37612;51.768;21.590;2022-12-29T02:30:42;99810.56;;;2.74;87.52
51528;BME280;37612;51.768;21.590;2022-12-29T02:39:07;99804.94;;;2.62;87.50
51528;BME280;37612;51.768;21.590;2022-12-29T02:43:34;99802.62;;;2.59;87.35
51528;BME280;37612;51.768;21.590;2022-12-29T02:48:30;99807.08;;;2.51;87.32
51528;BME280;37612;51.768;21.590;2022-12-29T02:53:09;99800.67;;;2.46;87.20
51528;BME280;37612;51.768;21.590;2022-12-29T02:57:33;99806.19;;;2.44;87.29
51528;BME280;37612;51.768;21.590;2022-12-29T03:14:32;99818.02;;;2.38;86.86
51528;BME280;37612;51.768;21.590;2022-12-29T03:19:05;99817.08;;;2.36;86.73
51528;BME280;37612;51.768;21.590;2022-12-29T03:23:09;99816.84;;;2.35;86.69
51528;BME280;37612;51.768;21.590;2022-12-29T03:27:14;99818.17;;;2.36;86.65
51528;BME280;37612;51.768;21.590;2022-12-29T03:31:19;99816.84;;;2.34;86.81
51528;BME280;37612;51.768;21.590;2022-12-29T03:35:25;99822.20;;;2.32;86.91
51528;BME280;37612;51.768;21.590;2022-12-29T03:39:28;99824.30;;;2.32;87.14
51528;BME280;37612;51.768;21.590;2022-12-29T03:43:30;99821.38;;;2.28;87.49
51528;BME280;37612;51.768;21.590;2022-12-29T03:47:31;99821.77;;;2.20;88.01
51528;BME280;37612;51.768;21.590;2022-12-29T03:51:32;99820.85;;;2.12;88.55
51528;BME280;37612;51.768;21.590;2022-12-29T03:55:35;99820.63;;;2.08;88.71
51528;BME280;37612;51.768;21.590;2022-12-29T03:59:36;99819.54;;;2.03;89.25
51528;BME280;37612;51.768;21.590;2022-12-29T04:03:38;99817.20;;;1.96;89.57
51528;BME280;37612;51.768;21.590;2022-12-29T04:07:39;99815.80;;;1.90;89.89
51528;BME280;37612;51.768;21.590;2022-12-29T04:11:40;99810.77;;;1.90;90.03
51528;BME280;37612;51.768;21.590;2022-12-29T04:15:45;99807.58;;;1.89;90.37
51528;BME280;37612;51.768;21.590;2022-12-29T04:19:47;99798.34;;;1.85;90.66
51528;BME280;37612;51.768;21.590;2022-12-29T04:23:48;99791.74;;;1.82;91.12
51528;BME280;37612;51.768;21.590;2022-12-29T04:27:50;99787.89;;;1.82;91.14
51528;BME280;37612;51.768;21.590;2022-12-29T04:31:51;99755.05;;;1.84;91.21
51528;BME280;37612;51.768;21.590;2022-12-29T04:35:53;99752.81;;;1.79;91.20
51528;BME280;37612;51.768;21.590;2022-12-29T04:39:56;99755.59;;;1.71;91.92
51528;BME280;37612;51.768;21.590;2022-12-29T04:43:57;99748.66;;;1.69;92.05
51528;BME280;37612;51.768;21.590;2022-12-29T04:47:58;99740.40;;;1.67;92.05
51528;BME280;37612;51.768;21.590;2022-12-29T04:51:59;99732.91;;;1.62;92.01
51528;BME280;37612;51.768;21.590;2022-12-29T04:56:00;99730.70;;;1.60;92.69
51528;BME280;37612;51.768;21.590;2022-12-29T05:00:02;99733.06;;;1.61;92.13
51528;BME280;37612;51.768;21.590;2022-12-29T05:04:04;99728.28;;;1.59;92.22
51528;BME280;37612;51.768;21.590;2022-12-29T05:08:05;99726.40;;;1.56;92.91
51528;BME280;37612;51.768;21.590;2022-12-29T05:12:06;99731.87;;;1.56;92.78
51528;BME280;37612;51.768;21.590;2022-12-29T05:16:09;99719.82;;;1.59;92.55
51528;BME280;37612;51.768;21.590;2022-12-29T05:20:11;99707.26;;;1.57;92.82
51528;BME280;37612;51.768;21.590;2022-12-29T05:24:12;99706.69;;;1.55;92.68
51528;BME280;37612;51.768;21.590;2022-12-29T05:28:13;99708.91;;;1.55;92.97
51528;BME280;37612;51.768;21.590;2022-12-29T05:32:14;99713.52;;;1.55;92.89
51528;BME280;37612;51.768;21.590;2022-12-29T05:36:16;99709.03;;;1.52;93.33
51528;BME280;37612;51.768;21.590;2022-12-29T05:40:17;99720.56;;;1.50;93.64
51528;BME280;37612;51.768;21.590;2022-12-29T05:44:18;99720.36;;;1.53;93.72
51528;BME280;37612;51.768;21.590;2022-12-29T05:48:19;99701.54;;;1.51;93.84
51528;BME280;37612;51.768;21.590;2022-12-29T05:52:20;99700.73;;;1.49;94.09
51528;BME280;37612;51.768;21.590;2022-12-29T05:56:22;99687.58;;;1.52;93.79
51528;BME280;37612;51.768;21.590;2022-12-29T06:00:23;99689.68;;;1.55;93.74
51528;BME280;37612;51.768;21.590;2022-12-29T06:04:25;99696.57;;;1.53;93.63
51528;BME280;37612;51.768;21.590;2022-12-29T06:08:27;99696.28;;;1.52;93.90
51528;BME280;37612;51.768;21.590;2022-12-29T06:12:28;99688.52;;;1.56;93.82
51528;BME280;37612;51.768;21.590;2022-12-29T06:16:29;99690.02;;;1.55;93.60
51528;BME280;37612;51.768;21.590;2022-12-29T06:20:30;99683.70;;;1.52;93.78
51528;BME280;37612;51.768;21.590;2022-12-29T06:24:31;99674.20;;;1.54;93.58
51528;BME280;37612;51.768;21.590;2022-12-29T06:28:33;99669.21;;;1.56;93.64
51528;BME280;37612;51.768;21.590;2022-12-29T06:32:34;99673.78;;;1.55;93.61
51528;BME280;37612;51.768;21.590;2022-12-29T06:36:35;99673.63;;;1.58;93.30
51528;BME280;37612;51.768;21.590;2022-12-29T06:40:37;99670.64;;;1.59;93.18
51528;BME280;37612;51.768;21.590;2022-12-29T06:44:38;99672.29;;;1.60;93.08
51528;BME280;37612;51.768;21.590;2022-12-29T06:48:39;99674.20;;;1.60;93.07
51528;BME280;37612;51.768;21.590;2022-12-29T06:52:43;99676.51;;;1.66;92.81
51528;BME280;37612;51.768;21.590;2022-12-29T06:56:45;99678.70;;;1.70;92.50
51528;BME280;37612;51.768;21.590;2022-12-29T07:00:46;99685.96;;;1.72;92.34
51528;BME280;37612;51.768;21.590;2022-12-29T07:04:48;99681.23;;;1.79;92.08
51528;BME280;37612;51.768;21.590;2022-12-29T07:08:49;99672.57;;;1.85;92.02
51528;BME280;37612;51.768;21.590;2022-12-29T07:12:50;99675.68;;;1.87;91.79
51528;BME280;37612;51.768;21.590;2022-12-29T07:16:52;99680.88;;;1.91;91.29
51528;BME280;37612;51.768;21.590;2022-12-29T07:20:54;99688.73;;;1.97;91.11
51528;BME280;37612;51.768;21.590;2022-12-29T07:24:56;99686.02;;;1.98;90.95
51528;BME280;37612;51.768;21.590;2022-12-29T07:29:00;99690.07;;;1.99;90.78
51528;BME280;37612;51.768;21.590;2022-12-29T07:33:03;99688.34;;;2.05;90.64
51528;BME280;37612;51.768;21.590;2022-12-29T07:37:07;99676.43;;;2.12;90.37
51528;BME280;37612;51.768;21.590;2022-12-29T07:41:08;99669.63;;;2.15;89.95
51528;BME280;37612;51.768;21.590;2022-12-29T07:45:10;99673.88;;;2.23;89.68
51528;BME280;37612;51.768;21.590;2022-12-29T07:49:17;99671.15;;;2.27;88.94
51528;BME280;37612;51.768;21.590;2022-12-29T07:53:19;99670.27;;;2.29;88.88
51528;BME280;37612;51.768;21.590;2022-12-29T07:57:20;99681.05;;;2.31;88.47
51528;BME280;37612;51.768;21.590;2022-12-29T08:01:22;99685.09;;;2.39;88.63
51528;BME280;37612;51.768;21.590;2022-12-29T08:05:25;99687.84;;;2.45;88.50
51528;BME280;37612;51.768;21.590;2022-12-29T08:09:26;99682.27;;;2.52;88.57
51528;BME280;37612;51.768;21.590;2022-12-29T08:13:27;99678.22;;;2.65;88.08
51528;BME280;37612;51.768;21.590;2022-12-29T08:17:28;99674.78;;;2.82;87.63
51528;BME280;37612;51.768;21.590;2022-12-29T08:21:30;99670.04;;;2.93;87.04
51528;BME280;37612;51.768;21.590;2022-12-29T08:25:31;99674.43;;;3.01;87.05
51528;BME280;37612;51.768;21.590;2022-12-29T08:29:32;99669.52;;;3.10;86.52
51528;BME280;37612;51.768;21.590;2022-12-29T08:33:33;99663.93;;;3.17;86.33
51528;BME280;37612;51.768;21.590;2022-12-29T08:37:35;99654.38;;;3.25;86.39
51528;BME280;37612;51.768;21.590;2022-12-29T08:41:36;99652.89;;;3.33;85.88
51528;BME280;37612;51.768;21.590;2022-12-29T08:45:37;99655.16;;;3.44;85.45
51528;BME280;37612;51.768;21.590;2022-12-29T08:49:39;99655.92;;;3.51;85.15
51528;BME280;37612;51.768;21.590;2022-12-29T08:53:40;99652.02;;;3.53;84.89
51528;BME280;37612;51.768;21.590;2022-12-29T08:57:43;99648.42;;;3.56;84.90
51528;BME280;37612;51.768;21.590;2022-12-29T09:01:47;99649.66;;;3.70;84.59
51528;BME280;37612;51.768;21.590;2022-12-29T09:05:49;99652.36;;;3.85;83.86
51528;BME280;37612;51.768;21.590;2022-12-29T09:10:07;99657.19;;;3.92;83.95
51528;BME280;37612;51.768;21.590;2022-12-29T09:14:08;99657.66;;;3.98;83.91
51528;BME280;37612;51.768;21.590;2022-12-29T09:18:11;99654.70;;;4.07;84.02
51528;BME280;37612;51.768;21.590;2022-12-29T09:22:13;99656.52;;;4.07;82.80
51528;BME280;37612;51.768;21.590;2022-12-29T09:26:15;99654.29;;;4.08;83.31
51528;BME280;37612;51.768;21.590;2022-12-29T09:30:17;99656.81;;;4.13;83.24
51528;BME280;37612;51.768;21.590;2022-12-29T09:34:20;99653.93;;;4.21;82.98
51528;BME280;37612;51.768;21.590;2022-12-29T09:38:26;99657.66;;;4.27;82.66
51528;BME280;37612;51.768;21.590;2022-12-29T09:42:53;99656.91;;;4.29;82.30
51528;BME280;37612;51.768;21.590;2022-12-29T09:46:59;99643.09;;;4.29;82.60
51528;BME280;37612;51.768;21.590;2022-12-29T09:51:13;99634.95;;;4.29;82.54
51528;BME280;37612;51.768;21.590;2022-12-29T09:55:20;99625.70;;;4.36;82.21
51528;BME280;37612;51.768;21.590;2022-12-29T09:59:30;99618.48;;;4.41;81.86
51528;BME280;37612;51.768;21.590;2022-12-29T10:03:59;99622.45;;;4.45;81.85
51528;BME280;37612;51.768;21.590;2022-12-29T10:26:14;99593.20;;;5.07;80.27
51528;BME280;37612;51.768;21.590;2022-12-29T10:30:17;99595.82;;;5.20;80.42
51528;BME280;37612;51.768;21.590;2022-12-29T10:34:25;99594.52;;;5.32;79.48
51528;BME280;37612;51.768;21.590;2022-12-29T10:38:42;99596.59;;;5.40;79.11
51528;BME280;37612;51.768;21.590;2022-12-29T10:42:50;99596.45;;;5.51;79.65
51528;BME280;37612;51.768;21.590;2022-12-29T10:46:59;99586.77;;;5.62;79.49
51528;BME280;37612;51.768;21.590;2022-12-29T10:51:05;99583.21;;;5.68;78.74
51528;BME280;37612;51.768;21.590;2022-12-29T10:55:13;99584.64;;;5.76;79.06
51528;BME280;37612;51.768;21.590;2022-12-29T10:59:23;99579.25;;;5.90;78.27
51528;BME280;37612;51.768;21.590;2022-12-29T11:08:55;99565.94;;;6.35;78.91
51528;BME280;37612;51.768;21.590;2022-12-29T11:13:35;99555.81;;;6.51;78.10
51528;BME280;37612;51.768;21.590;2022-12-29T11:17:56;99551.91;;;6.62;77.60
51528;BME280;37612;51.768;21.590;2022-12-29T11:22:33;99545.98;;;6.74;76.89
51528;BME280;37612;51.768;21.590;2022-12-29T11:26:38;99546.31;;;6.83;77.07
51528;BME280;37612;51.768;21.590;2022-12-29T11:31:01;99543.58;;;6.88;76.70
51528;BME280;37612;51.768;21.590;2022-12-29T11:35:05;99541.70;;;6.92;76.20
51528;BME280;37612;51.768;21.590;2022-12-29T11:39:27;99540.11;;;6.93;75.95
51528;BME280;37612;51.768;21.590;2022-12-29T11:43:30;99551.84;;;6.93;75.65
51528;BME280;37612;51.768;21.590;2022-12-29T11:47:34;99546.77;;;6.97;76.54
51528;BME280;37612;51.768;21.590;2022-12-29T11:51:39;99550.06;;;7.02;75.13
51528;BME280;37612;51.768;21.590;2022-12-29T11:55:56;99555.17;;;7.06;75.55
51528;BME280;37612;51.768;21.590;2022-12-29T12:00:16;99545.62;;;7.10;75.00
51528;BME280;37612;51.768;21.590;2022-12-29T12:04:23;99548.84;;;7.11;75.32
51528;BME280;37612;51.768;21.590;2022-12-29T12:08:58;99550.10;;;7.14;75.22
51528;BME280;37612;51.768;21.590;2022-12-29T12:13:18;99547.23;;;7.20;75.04
51528;BME280;37612;51.768;21.590;2022-12-29T12:17:35;99554.52;;;7.24;75.46
51528;BME280;37612;51.768;21.590;2022-12-29T12:21:42;99552.35;;;7.26;75.64
51528;BME280;37612;51.768;21.590;2022-12-29T12:30:16;99551.13;;;7.27;76.11
51528;BME280;37612;51.768;21.590;2022-12-29T12:34:24;99547.23;;;7.25;76.21
51528;BME280;37612;51.768;21.590;2022-12-29T12:43:04;99545.83;;;7.24;76.01
51528;BME280;37612;51.768;21.590;2022-12-29T12:55:44;99533.23;;;7.23;75.12
51528;BME280;37612;51.768;21.590;2022-12-29T13:00:17;99534.50;;;7.23;75.36
51528;BME280;37612;51.768;21.590;2022-12-29T13:05:14;99536.67;;;7.23;75.54
51528;BME280;37612;51.768;21.590;2022-12-29T13:09:02;99535.33;;;7.22;75.57
51528;BME280;37612;51.768;21.590;2022-12-29T13:13:34;99541.70;;;7.22;75.60
51528;BME280;37612;51.768;21.590;2022-12-29T13:17:51;99539.48;;;7.23;75.53
51528;BME280;37612;51.768;21.590;2022-12-29T13:22:09;99532.42;;;7.23;75.34
51528;BME280;37612;51.768;21.590;2022-12-29T13:26:31;99528.55;;;7.20;75.30
51528;BME280;37612;51.768;21.590;2022-12-29T13:34:53;99536.00;;;7.09;75.95
51528;BME280;37612;51.768;21.590;2022-12-29T13:39:10;99528.39;;;7.01;76.02
51528;BME280;37612;51.768;21.590;2022-12-29T13:43:14;99527.61;;;6.94;76.18
51528;BME280;37612;51.768;21.590;2022-12-29T13:47:40;99524.98;;;6.90;76.54
51528;BME280;37612;51.768;21.590;2022-12-29T13:51:48;99521.66;;;6.91;76.30
51528;BME280;37612;51.768;21.590;2022-12-29T13:56:07;99520.40;;;6.89;76.59
51528;BME280;37612;51.768;21.590;2022-12-29T14:00:18;99530.48;;;6.86;76.71
51528;BME280;37612;51.768;21.590;2022-12-29T14:04:23;99531.48;;;6.84;76.91
51528;BME280;37612;51.768;21.590;2022-12-29T14:08:25;99523.24;;;6.80;77.02
51528;BME280;37612;51.768;21.590;2022-12-29T14:16:33;99536.68;;;6.85;77.08
51528;BME280;37612;51.768;21.590;2022-12-29T14:20:35;99536.80;;;6.88;77.24
51528;BME280;37612;51.768;21.590;2022-12-29T14:24:44;99533.78;;;6.88;77.23
51528;BME280;37612;51.768;21.590;2022-12-29T14:28:48;99523.38;;;6.89;77.55
51528;BME280;37612;51.768;21.590;2022-12-29T14:33:16;99526.88;;;6.92;77.54
51528;BME280;37612;51.768;21.590;2022-12-29T14:37:31;99526.66;;;7.02;77.30
51528;BME280;37612;51.768;21.590;2022-12-29T14:41:38;99527.02;;;7.18;76.71
51528;BME280;37612;51.768;21.590;2022-12-29T14:45:41;99530.83;;;7.29;76.75
51528;BME280;37612;51.768;21.590;2022-12-29T14:49:43;99528.30;;;7.37;76.55
51528;BME280;37612;51.768;21.590;2022-12-29T14:53:50;99528.39;;;7.43;76.37
51528;BME280;37612;51.768;21.590;2022-12-29T14:57:58;99533.63;;;7.45;76.52
51528;BME280;37612;51.768;21.590;2022-12-29T15:02:03;99530.24;;;7.52;76.17
51528;BME280;37612;51.768;21.590;2022-12-29T15:06:07;99523.81;;;7.59;75.14
51528;BME280;37612;51.768;21.590;2022-12-29T15:10:15;99532.73;;;7.63;75.36
51528;BME280;37612;51.768;21.590;2022-12-29T15:18:34;99540.73;;;7.57;75.21
51528;BME280;37612;51.768;21.590;2022-12-29T15:22:35;99539.52;;;7.54;74.80
51528;BME280;37612;51.768;21.590;2022-12-29T15:26:40;99539.96;;;7.52;74.82
51528;BME280;37612;51.768;21.590;2022-12-29T15:31:03;99542.02;;;7.48;74.52
51528;BME280;37612;51.768;21.590;2022-12-29T15:39:30;99546.04;;;7.44;74.75
51528;BME280;37612;51.768;21.590;2022-12-29T15:47:57;99555.98;;;7.19;75.19
51528;BME280;37612;51.768;21.590;2022-12-29T15:52:06;99558.39;;;7.05;75.42
51528;BME280;37612;51.768;21.590;2022-12-29T15:56:10;99563.48;;;6.93;75.79
51528;BME280;37612;51.768;21.590;2022-12-29T16:00:28;99565.78;;;6.86;75.88
51528;BME280;37612;51.768;21.590;2022-12-29T16:04:30;99556.42;;;6.82;75.92
51528;BME280;37612;51.768;21.590;2022-12-29T16:08:36;99554.01;;;6.75;75.90
51528;BME280;37612;51.768;21.590;2022-12-29T16:12:38;99555.17;;;6.66;76.35
51528;BME280;37612;51.768;21.590;2022-12-29T16:16:41;99552.22;;;6.59;76.50
51528;BME280;37612;51.768;21.590;2022-12-29T16:20:43;99554.66;;;6.51;76.64
51528;BME280;37612;51.768;21.590;2022-12-29T16:24:44;99557.25;;;6.48;76.66
51528;BME280;37612;51.768;21.590;2022-12-29T16:28:48;99553.77;;;6.50;76.80
51528;BME280;37612;51.768;21.590;2022-12-29T16:33:04;99555.34;;;6.51;76.85
51528;BME280;37612;51.768;21.590;2022-12-29T16:41:29;99549.78;;;6.44;76.93
51528;BME280;37612;51.768;21.590;2022-12-29T16:46:16;99547.38;;;6.38;77.26
51528;BME280;37612;51.768;21.590;2022-12-29T16:50:11;99552.10;;;6.35;76.85
51528;BME280;37612;51.768;21.590;2022-12-29T16:54:32;99558.95;;;6.30;77.14
51528;BME280;37612;51.768;21.590;2022-12-29T16:58:34;99560.83;;;6.20;77.38
51528;BME280;37612;51.768;21.590;2022-12-29T17:02:36;99568.69;;;6.10;77.66
51528;BME280;37612;51.768;21.590;2022-12-29T17:06:45;99570.89;;;6.05;77.69
51528;BME280;37612;51.768;21.590;2022-12-29T17:10:46;99565.69;;;5.97;78.03
51528;BME280;37612;51.768;21.590;2022-12-29T17:15:07;99561.38;;;5.83;78.33
51528;BME280;37612;51.768;21.590;2022-12-29T17:19:18;99554.16;;;5.71;78.33
51528;BME280;37612;51.768;21.590;2022-12-29T17:23:19;99554.61;;;5.66;78.62
51528;BME280;37612;51.768;21.590;2022-12-29T17:31:24;99561.38;;;5.56;79.18
51528;BME280;37612;51.768;21.590;2022-12-29T17:35:27;99564.34;;;5.46;79.11
51528;BME280;37612;51.768;21.590;2022-12-29T17:39:28;99568.83;;;5.39;79.33
51528;BME280;37612;51.768;21.590;2022-12-29T17:43:29;99564.10;;;5.35;79.51
51528;BME280;37612;51.768;21.590;2022-12-29T17:47:31;99571.91;;;5.29;80.02
51528;BME280;37612;51.768;21.590;2022-12-29T17:56:37;99571.71;;;5.21;80.18
51528;BME280;37612;51.768;21.590;2022-12-29T18:00:38;99577.50;;;5.20;80.27
51528;BME280;37612;51.768;21.590;2022-12-29T18:04:40;99579.42;;;5.20;80.65
51528;BME280;37612;51.768;21.590;2022-12-29T18:08:41;99579.39;;;5.19;80.74
51528;BME280;37612;51.768;21.590;2022-12-29T18:12:45;99583.19;;;5.20;80.84
51528;BME280;37612;51.768;21.590;2022-12-29T18:16:48;99586.06;;;5.25;80.89
51528;BME280;37612;51.768;21.590;2022-12-29T18:20:52;99587.23;;;5.28;81.28
51528;BME280;37612;51.768;21.590;2022-12-29T18:25:46;99583.02;;;5.30;81.54
51528;BME280;37612;51.768;21.590;2022-12-29T18:29:40;99579.45;;;5.38;81.49
51528;BME280;37612;51.768;21.590;2022-12-29T18:33:42;99584.52;;;5.44;81.77
51528;BME280;37612;51.768;21.590;2022-12-29T18:37:43;99583.15;;;5.46;81.60
51528;BME280;37612;51.768;21.590;2022-12-29T18:41:45;99582.23;;;5.45;81.80
51528;BME280;37612;51.768;21.590;2022-12-29T18:45:46;99581.09;;;5.48;81.87
51528;BME280;37612;51.768;21.590;2022-12-29T18:49:48;99581.02;;;5.50;81.95
51528;BME280;37612;51.768;21.590;2022-12-29T18:53:49;99581.11;;;5.47;82.11
51528;BME280;37612;51.768;21.590;2022-12-29T18:57:53;99579.00;;;5.43;82.23
51528;BME280;37612;51.768;21.590;2022-12-29T19:01:55;99575.81;;;5.42;82.22
51528;BME280;37612;51.768;21.590;2022-12-29T19:05:56;99568.15;;;5.43;82.62
51528;BME280;37612;51.768;21.590;2022-12-29T19:09:58;99568.06;;;5.41;82.87
51528;BME280;37612;51.768;21.590;2022-12-29T19:13:59;99565.02;;;5.38;82.85
51528;BME280;37612;51.768;21.590;2022-12-29T19:18:03;99562.55;;;5.35;82.70
51528;BME280;37612;51.768;21.590;2022-12-29T19:22:05;99566.48;;;5.33;83.35
51528;BME280;37612;51.768;21.590;2022-12-29T19:26:06;99566.87;;;5.32;83.32
51528;BME280;37612;51.768;21.590;2022-12-29T19:30:08;99567.34;;;5.28;83.74
51528;BME280;37612;51.768;21.590;2022-12-29T19:34:14;99571.27;;;5.24;83.95
51528;BME280;37612;51.768;21.590;2022-12-29T19:38:15;99572.55;;;5.20;83.91
51528;BME280;37612;51.768;21.590;2022-12-29T19:42:17;99573.27;;;5.20;84.03
51528;BME280;37612;51.768;21.590;2022-12-29T19:46:18;99581.16;;;5.21;83.95
51528;BME280;37612;51.768;21.590;2022-12-29T19:50:20;99582.13;;;5.20;83.94
51528;BME280;37612;51.768;21.590;2022-12-29T19:54:21;99581.52;;;5.20;84.07
51528;BME280;37612;51.768;21.590;2022-12-29T19:58:22;99578.95;;;5.24;83.85
51528;BME280;37612;51.768;21.590;2022-12-29T20:02:29;99575.58;;;5.29;83.88
51528;BME280;37612;51.768;21.590;2022-12-29T20:06:31;99570.98;;;5.29;84.06
51528;BME280;37612;51.768;21.590;2022-12-29T20:10:33;99563.13;;;5.27;84.14
51528;BME280;37612;51.768;21.590;2022-12-29T20:14:34;99559.61;;;5.27;84.12
51528;BME280;37612;51.768;21.590;2022-12-29T20:18:36;99564.27;;;5.29;84.06
51528;BME280;37612;51.768;21.590;2022-12-29T20:22:37;99566.21;;;5.27;84.23
51528;BME280;37612;51.768;21.590;2022-12-29T20:26:38;99560.36;;;5.23;84.46
51528;BME280;37612;51.768;21.590;2022-12-29T20:30:39;99568.69;;;5.24;84.16
51528;BME280;37612;51.768;21.590;2022-12-29T20:34:42;99568.80;;;5.25;84.53
51528;BME280;37612;51.768;21.590;2022-12-29T20:38:43;99567.69;;;5.23;84.40
51528;BME280;37612;51.768;21.590;2022-12-29T20:42:45;99567.06;;;5.19;84.82
51528;BME280;37612;51.768;21.590;2022-12-29T20:46:47;99568.73;;;5.18;84.71
51528;BME280;37612;51.768;21.590;2022-12-29T20:50:48;99571.67;;;5.21;84.80
51528;BME280;37612;51.768;21.590;2022-12-29T20:54:50;99571.10;;;5.21;84.81
51528;BME280;37612;51.768;21.590;2022-12-29T20:58:52;99572.36;;;5.19;84.77
51528;BME280;37612;51.768;21.590;2022-12-29T21:02:54;99572.41;;;5.17;84.70
51528;BME280;37612;51.768;21.590;2022-12-29T21:06:55;99579.46;;;5.19;84.88
51528;BME280;37612;51.768;21.590;2022-12-29T21:10:56;99572.72;;;5.19;84.98
51528;BME280;37612;51.768;21.590;2022-12-29T21:15:00;99576.39;;;5.13;84.91
51528;BME280;37612;51.768;21.590;2022-12-29T21:19:02;99576.65;;;5.05;85.24
51528;BME280;37612;51.768;21.590;2022-12-29T21:23:04;99584.61;;;5.00;85.00
51528;BME280;37612;51.768;21.590;2022-12-29T21:27:06;99585.02;;;4.97;85.48
51528;BME280;37612;51.768;21.590;2022-12-29T21:31:34;99586.79;;;4.92;85.56
51528;BME280;37612;51.768;21.590;2022-12-29T21:35:39;99585.27;;;4.87;85.64
51528;BME280;37612;51.768;21.590;2022-12-29T21:39:40;99592.94;;;4.89;85.52
51528;BME280;37612;51.768;21.590;2022-12-29T21:43:43;99586.27;;;4.91;85.68
51528;BME280;37612;51.768;21.590;2022-12-29T21:48:05;99577.28;;;4.91;85.75
51528;BME280;37612;51.768;21.590;2022-12-29T21:52:23;99578.23;;;4.87;85.83
51528;BME280;37612;51.768;21.590;2022-12-29T21:56:24;99585.14;;;4.86;86.06
51528;BME280;37612;51.768;21.590;2022-12-29T22:00:26;99588.52;;;4.84;86.10
51528;BME280;37612;51.768;21.590;2022-12-29T22:04:45;99593.90;;;4.83;86.13
51528;BME280;37612;51.768;21.590;2022-12-29T22:09:05;99587.96;;;4.87;86.20
51528;BME280;37612;51.768;21.590;2022-12-29T22:13:25;99591.26;;;4.93;85.90
51528;BME280;37612;51.768;21.590;2022-12-29T22:17:26;99589.86;;;4.93;85.94
51528;BME280;37612;51.768;21.590;2022-12-29T22:21:27;99589.12;;;4.91;86.14
51528;BME280;37612;51.768;21.590;2022-12-29T22:25:29;99589.44;;;4.92;85.92
51528;BME280;37612;51.768;21.590;2022-12-29T22:29:30;99585.91;;;4.94;85.96
51528;BME280;37612;51.768;21.590;2022-12-29T22:33:32;99592.78;;;4.95;86.47
51528;BME280;37612;51.768;21.590;2022-12-29T22:37:33;99595.39;;;4.95;86.24
51528;BME280;37612;51.768;21.590;2022-12-29T22:41:35;99598.56;;;4.97;86.36
51528;BME280;37612;51.768;21.590;2022-12-29T22:45:37;99595.89;;;4.97;86.14
51528;BME280;37612;51.768;21.590;2022-12-29T22:49:39;99594.15;;;4.92;86.04
51528;BME280;37612;51.768;21.590;2022-12-29T22:53:40;99600.91;;;4.85;86.21
51528;BME280;37612;51.768;21.590;2022-12-29T22:57:41;99602.73;;;4.80;86.15
51528;BME280;37612;51.768;21.590;2022-12-29T23:01:43;99607.97;;;4.74;86.24
51528;BME280;37612;51.768;21.590;2022-12-29T23:05:54;99610.49;;;4.66;86.30
51528;BME280;37612;51.768;21.590;2022-12-29T23:09:55;99611.77;;;4.59;86.47
51528;BME280;37612;51.768;21.590;2022-12-29T23:13:57;99618.80;;;4.55;86.55
51528;BME280;37612;51.768;21.590;2022-12-29T23:17:59;99615.02;;;4.58;86.71
51528;BME280;37612;51.768;21.590;2022-12-29T23:22:00;99617.63;;;4.61;86.89
51528;BME280;37612;51.768;21.590;2022-12-29T23:26:02;99616.44;;;4.63;87.01
51528;BME280;37612;51.768;21.590;2022-12-29T23:30:03;99615.41;;;4.64;86.74